createdAt,value
2024-03-07T00:00:10.543Z,821.00
2024-03-07T00:00:40.589Z,817.00
2024-03-07T00:01:10.625Z,818.00
2024-03-07T00:01:40.631Z,820.00
2024-03-07T00:02:10.671Z,817.00
2024-03-07T00:02:40.721Z,820.00
2024-03-07T00:03:10.749Z,821.00
2024-03-07T00:03:40.740Z,822.00
2024-03-07T00:04:40.745Z,821.00
2024-03-07T00:05:10.807Z,823.00
2024-03-07T00:05:40.926Z,818.00
2024-03-07T00:06:10.844Z,826.00
2024-03-07T00:06:40.850Z,819.00
2024-03-07T00:07:10.854Z,823.00
2024-03-07T00:07:40.915Z,821.00
2024-03-07T00:08:10.941Z,821.00
2024-03-07T00:08:40.962Z,843.00
2024-03-07T00:09:10.944Z,827.00
2024-03-07T00:09:40.982Z,824.00
2024-03-07T00:10:10.993Z,817.00
2024-03-07T00:10:41.039Z,817.00
2024-03-07T00:11:11.095Z,820.00
2024-03-07T00:11:41.221Z,816.00
2024-03-07T00:12:11.234Z,819.00
2024-03-07T00:12:41.194Z,820.00
2024-03-07T00:13:11.208Z,816.00
2024-03-07T00:13:41.194Z,815.00
2024-03-07T00:14:11.219Z,818.00
2024-03-07T00:14:41.312Z,814.00
2024-03-07T00:15:11.330Z,816.00
2024-03-07T00:15:41.345Z,819.00
2024-03-07T00:16:11.384Z,810.00
2024-03-07T00:16:41.368Z,810.00
2024-03-07T00:17:41.628Z,816.00
2024-03-07T00:18:11.788Z,808.00
2024-03-07T00:18:41.535Z,818.00
2024-03-07T00:19:11.548Z,812.00
2024-03-07T00:19:41.548Z,813.00
2024-03-07T00:20:11.568Z,812.00
2024-03-07T00:20:41.589Z,813.00
2024-03-07T00:21:11.574Z,815.00
2024-03-07T00:21:41.710Z,809.00
2024-03-07T00:22:11.700Z,807.00
2024-03-07T00:22:41.711Z,805.00
2024-03-07T00:23:11.749Z,806.00
2024-03-07T00:23:41.773Z,804.00
2024-03-07T00:24:11.796Z,809.00
2024-03-07T00:24:41.808Z,810.00
2024-03-07T00:25:11.856Z,812.00
2024-03-07T00:25:41.867Z,818.00
2024-03-07T00:26:12.001Z,817.00
2024-03-07T00:26:42.040Z,814.00
2024-03-07T00:27:12.018Z,812.00
2024-03-07T00:27:42.017Z,806.00
2024-03-07T00:28:42.099Z,807.00
2024-03-07T00:29:12.130Z,806.00
2024-03-07T00:29:42.163Z,807.00
2024-03-07T00:30:12.194Z,803.00
2024-03-07T00:30:42.235Z,803.00
2024-03-07T00:31:12.219Z,808.00
2024-03-07T00:31:42.262Z,804.00
2024-03-07T00:32:14.646Z,805.00
2024-03-07T00:32:42.655Z,799.00
2024-03-07T00:33:12.536Z,804.00
2024-03-07T00:33:53.660Z,804.00
2024-03-07T00:34:17.006Z,803.00
2024-03-07T00:34:42.706Z,803.00
2024-03-07T00:35:12.745Z,805.00
2024-03-07T00:35:42.807Z,802.00
2024-03-07T00:36:12.814Z,799.00
2024-03-07T00:36:42.912Z,803.00
2024-03-07T00:37:12.912Z,799.00
2024-03-07T00:37:42.993Z,799.00
2024-03-07T00:38:13.114Z,798.00
2024-03-07T00:38:43.126Z,799.00
2024-03-07T00:39:13.197Z,793.00
2024-03-07T00:39:43.270Z,796.00
2024-03-07T00:40:13.417Z,794.00
2024-03-07T00:40:43.380Z,798.00
2024-03-07T00:41:13.439Z,801.00
2024-03-07T00:41:43.524Z,779.00
2024-03-07T00:42:13.588Z,788.00
2024-03-07T00:42:43.672Z,787.00
2024-03-07T00:43:13.753Z,801.00
2024-03-07T00:43:43.827Z,790.00
2024-03-07T00:44:13.920Z,789.00
2024-03-07T00:44:44.016Z,790.00
2024-03-07T00:45:14.121Z,787.00
2024-03-07T00:45:44.170Z,790.00
2024-03-07T00:46:14.253Z,788.00
2024-03-07T00:46:44.358Z,794.00
2024-03-07T00:47:14.468Z,796.00
2024-03-07T00:47:44.666Z,794.00
2024-03-07T00:48:14.654Z,789.00
2024-03-07T00:48:44.625Z,798.00
2024-03-07T00:49:14.656Z,779.00
2024-03-07T00:49:44.672Z,790.00
2024-03-07T00:50:14.710Z,801.00
2024-03-07T00:50:44.737Z,791.00
2024-03-07T00:51:14.757Z,790.00
2024-03-07T00:51:44.754Z,789.00
2024-03-07T00:52:14.768Z,788.00
2024-03-07T00:52:44.756Z,791.00
2024-03-07T00:53:14.769Z,787.00
2024-03-07T00:54:14.883Z,790.00
2024-03-07T00:54:44.881Z,790.00
2024-03-07T00:55:14.875Z,792.00
2024-03-07T00:55:44.873Z,792.00
2024-03-07T00:56:44.986Z,789.00
2024-03-07T00:57:15.019Z,788.00
2024-03-07T00:57:45.055Z,787.00
2024-03-07T00:58:15.037Z,787.00
2024-03-07T00:58:45.040Z,787.00
2024-03-07T00:59:15.081Z,787.00
2024-03-07T00:59:45.163Z,787.00
2024-03-07T01:00:15.772Z,784.00
2024-03-07T01:00:45.239Z,786.00
2024-03-07T01:01:15.315Z,785.00
2024-03-07T01:01:45.348Z,788.00
2024-03-07T01:02:15.421Z,785.00
2024-03-07T01:02:45.598Z,785.00
2024-03-07T01:03:15.464Z,781.00
2024-03-07T01:03:45.469Z,777.00
2024-03-07T01:04:15.474Z,777.00
2024-03-07T01:04:45.479Z,776.00
2024-03-07T01:05:15.814Z,776.00
2024-03-07T01:05:45.649Z,775.00
2024-03-07T01:06:15.642Z,775.00
2024-03-07T01:06:45.651Z,776.00
2024-03-07T01:07:15.669Z,778.00
2024-03-07T01:07:45.762Z,782.00
2024-03-07T01:08:15.824Z,783.00
2024-03-07T01:08:45.739Z,779.00
2024-03-07T01:09:45.868Z,780.00
2024-03-07T01:10:15.874Z,779.00
2024-03-07T01:10:45.984Z,781.00
2024-03-07T01:11:16.103Z,778.00
2024-03-07T01:11:46.137Z,785.00
2024-03-07T01:12:16.248Z,780.00
2024-03-07T01:12:46.167Z,778.00
2024-03-07T01:13:16.281Z,778.00
2024-03-07T01:13:46.322Z,777.00
2024-03-07T01:14:16.367Z,774.00
2024-03-07T01:14:46.422Z,778.00
2024-03-07T01:15:16.448Z,778.00
2024-03-07T01:15:46.461Z,778.00
2024-03-07T01:16:16.498Z,786.00
2024-03-07T01:16:46.479Z,797.00
2024-03-07T01:17:46.751Z,780.00
2024-03-07T01:18:16.815Z,778.00
2024-03-07T01:18:46.796Z,777.00
2024-03-07T01:19:16.848Z,775.00
2024-03-07T01:19:46.842Z,773.00
2024-03-07T01:20:16.857Z,778.00
2024-03-07T01:20:46.988Z,780.00
2024-03-07T01:21:16.957Z,780.00
2024-03-07T01:21:46.956Z,777.00
2024-03-07T01:22:16.968Z,775.00
2024-03-07T01:22:46.960Z,773.00
2024-03-07T01:23:17.037Z,773.00
2024-03-07T01:23:47.052Z,770.00
2024-03-07T01:24:17.094Z,764.00
2024-03-07T01:24:47.114Z,764.00
2024-03-07T01:25:17.114Z,769.00
2024-03-07T01:25:47.119Z,765.00
2024-03-07T01:26:17.174Z,751.00
2024-03-07T01:26:47.307Z,759.00
2024-03-07T01:27:17.215Z,767.00
2024-03-07T01:27:47.222Z,761.00
2024-03-07T01:28:17.236Z,755.00
2024-03-07T01:28:47.231Z,757.00
2024-03-07T01:29:17.334Z,756.00
2024-03-07T01:29:47.341Z,759.00
2024-03-07T01:30:17.351Z,759.00
2024-03-07T01:30:47.369Z,764.00
2024-03-07T01:31:17.491Z,760.00
2024-03-07T01:31:47.504Z,765.00
2024-03-07T01:32:17.616Z,761.00
2024-03-07T01:32:47.672Z,760.00
2024-03-07T01:33:17.777Z,762.00
2024-03-07T01:33:47.752Z,763.00
2024-03-07T01:34:17.762Z,758.00
2024-03-07T01:34:47.767Z,758.00
2024-03-07T01:35:17.783Z,760.00
2024-03-07T01:35:47.854Z,759.00
2024-03-07T01:36:17.787Z,759.00
2024-03-07T01:36:47.790Z,756.00
2024-03-07T01:37:17.839Z,756.00
2024-03-07T01:37:47.915Z,757.00
2024-03-07T01:38:18.040Z,755.00
2024-03-07T01:38:48.117Z,756.00
2024-03-07T01:39:18.119Z,755.00
2024-03-07T01:39:48.200Z,756.00
2024-03-07T01:40:18.285Z,757.00
2024-03-07T01:40:48.359Z,757.00
2024-03-07T01:41:18.455Z,756.00
2024-03-07T01:41:48.608Z,758.00
2024-03-07T01:42:18.577Z,756.00
2024-03-07T01:42:48.668Z,757.00
2024-03-07T01:43:18.731Z,756.00
2024-03-07T01:43:48.812Z,754.00
2024-03-07T01:44:18.938Z,759.00
2024-03-07T01:44:49.062Z,760.00
2024-03-07T01:45:19.077Z,757.00
2024-03-07T01:45:49.163Z,756.00
2024-03-07T01:46:19.238Z,753.00
2024-03-07T01:46:49.300Z,751.00
2024-03-07T01:47:19.443Z,759.00
2024-03-07T01:47:49.575Z,752.00
2024-03-07T01:48:19.546Z,750.00
2024-03-07T01:48:49.571Z,749.00
2024-03-07T01:49:19.572Z,753.00
2024-03-07T01:49:49.603Z,752.00
2024-03-07T01:50:19.860Z,754.00
2024-03-07T01:50:49.666Z,752.00
2024-03-07T01:51:49.759Z,751.00
2024-03-07T01:52:19.788Z,753.00
2024-03-07T01:52:49.789Z,754.00
2024-03-07T01:53:19.841Z,750.00
2024-03-07T01:53:50.002Z,752.00
2024-03-07T01:54:19.945Z,748.00
2024-03-07T01:54:49.997Z,747.00
2024-03-07T01:55:20.007Z,744.00
2024-03-07T01:55:50.051Z,746.00
2024-03-07T01:56:20.070Z,743.00
2024-03-07T01:56:50.310Z,748.00
2024-03-07T01:57:20.156Z,746.00
2024-03-07T01:57:50.154Z,746.00
2024-03-07T01:58:20.157Z,743.00
2024-03-07T01:58:50.157Z,744.00
2024-03-07T01:59:20.185Z,742.00
2024-03-07T01:59:50.215Z,742.00
2024-03-07T02:00:20.210Z,746.00
2024-03-07T02:00:50.220Z,746.00
2024-03-07T02:01:20.259Z,742.00
2024-03-07T02:01:50.261Z,742.00
2024-03-07T02:02:20.291Z,752.00
2024-03-07T02:02:50.433Z,734.00
2024-03-07T02:03:20.338Z,735.00
2024-03-07T02:03:50.370Z,738.00
2024-03-07T02:04:20.380Z,740.00
2024-03-07T02:04:50.378Z,740.00
2024-03-07T02:05:20.407Z,733.00
2024-03-07T02:05:50.590Z,732.00
2024-03-07T02:06:20.426Z,732.00
2024-03-07T02:06:50.426Z,733.00
2024-03-07T02:07:20.434Z,738.00
2024-03-07T02:07:50.441Z,736.00
2024-03-07T02:08:20.469Z,736.00
2024-03-07T02:08:50.541Z,736.00
2024-03-07T02:09:20.568Z,737.00
2024-03-07T02:09:50.583Z,742.00
2024-03-07T02:10:20.586Z,743.00
2024-03-07T02:10:50.914Z,739.00
2024-03-07T02:11:20.811Z,734.00
2024-03-07T02:11:51.004Z,733.00
2024-03-07T02:12:20.847Z,732.00
2024-03-07T02:12:50.866Z,722.00
2024-03-07T02:13:20.871Z,729.00
2024-03-07T02:13:51.092Z,724.00
2024-03-07T02:14:20.988Z,729.00
2024-03-07T02:14:51.089Z,728.00
2024-03-07T02:15:21.015Z,732.00
2024-03-07T02:15:51.023Z,727.00
2024-03-07T02:16:21.082Z,728.00
2024-03-07T02:16:51.077Z,730.00
2024-03-07T02:17:21.261Z,728.00
2024-03-07T02:17:51.432Z,727.00
2024-03-07T02:18:21.470Z,730.00
2024-03-07T02:18:51.387Z,735.00
2024-03-07T02:19:21.421Z,736.00
2024-03-07T02:19:51.393Z,740.00
2024-03-07T02:20:51.651Z,737.00
2024-03-07T02:21:21.525Z,736.00
2024-03-07T02:21:51.523Z,742.00
2024-03-07T02:22:21.537Z,732.00
2024-03-07T02:22:51.540Z,734.00
2024-03-07T02:23:21.558Z,732.00
2024-03-07T02:23:51.605Z,730.00
2024-03-07T02:24:21.594Z,731.00
2024-03-07T02:24:51.616Z,733.00
2024-03-07T02:25:21.716Z,741.00
2024-03-07T02:25:51.733Z,737.00
2024-03-07T02:26:21.778Z,731.00
2024-03-07T02:26:51.857Z,731.00
2024-03-07T02:27:21.843Z,734.00
2024-03-07T02:27:51.851Z,732.00
2024-03-07T02:28:21.862Z,728.00
2024-03-07T02:28:51.860Z,732.00
2024-03-07T02:29:51.978Z,724.00
2024-03-07T02:30:21.973Z,728.00
2024-03-07T02:30:51.980Z,731.00
2024-03-07T02:31:21.985Z,733.00
2024-03-07T02:31:51.986Z,738.00
2024-03-07T02:32:22.031Z,735.00
2024-03-07T02:32:52.096Z,736.00
2024-03-07T02:33:22.167Z,735.00
2024-03-07T02:33:52.214Z,733.00
2024-03-07T02:34:22.196Z,726.00
2024-03-07T02:34:52.231Z,727.00
2024-03-07T02:35:22.240Z,720.00
2024-03-07T02:35:52.334Z,720.00
2024-03-07T02:36:22.305Z,722.00
2024-03-07T02:36:52.356Z,723.00
2024-03-07T02:37:22.358Z,724.00
2024-03-07T02:37:52.441Z,726.00
2024-03-07T02:38:22.545Z,723.00
2024-03-07T02:38:52.881Z,728.00
2024-03-07T02:39:22.670Z,726.00
2024-03-07T02:39:52.774Z,728.00
2024-03-07T02:40:22.738Z,727.00
2024-03-07T02:41:22.863Z,725.00
2024-03-07T02:41:52.891Z,724.00
2024-03-07T02:42:22.901Z,722.00
2024-03-07T02:42:52.990Z,723.00
2024-03-07T02:43:23.063Z,725.00
2024-03-07T02:43:53.140Z,722.00
2024-03-07T02:44:23.244Z,720.00
2024-03-07T02:44:53.386Z,720.00
2024-03-07T02:45:23.360Z,725.00
2024-03-07T02:45:53.440Z,721.00
2024-03-07T02:46:23.534Z,722.00
2024-03-07T02:46:53.613Z,719.00
2024-03-07T02:47:23.738Z,719.00
2024-03-07T02:47:53.868Z,722.00
2024-03-07T02:48:23.957Z,721.00
2024-03-07T02:48:53.975Z,719.00
2024-03-07T02:49:24.002Z,717.00
2024-03-07T02:49:54.012Z,719.00
2024-03-07T02:50:54.146Z,717.00
2024-03-07T02:51:24.151Z,714.00
2024-03-07T02:51:54.154Z,714.00
2024-03-07T02:52:24.229Z,715.00
2024-03-07T02:52:54.450Z,719.00
2024-03-07T02:53:24.362Z,720.00
2024-03-07T02:53:54.445Z,719.00
2024-03-07T02:54:24.456Z,716.00
2024-03-07T02:54:54.576Z,717.00
2024-03-07T02:55:24.637Z,725.00
2024-03-07T02:55:54.620Z,715.00
2024-03-07T02:56:24.720Z,706.00
2024-03-07T02:56:54.820Z,709.00
2024-03-07T02:57:24.728Z,710.00
2024-03-07T02:57:54.723Z,712.00
2024-03-07T02:58:24.719Z,712.00
2024-03-07T02:58:54.723Z,712.00
2024-03-07T02:59:24.753Z,713.00
2024-03-07T02:59:54.797Z,716.00
2024-03-07T03:00:24.832Z,715.00
2024-03-07T03:00:54.827Z,715.00
2024-03-07T03:01:24.845Z,711.00
2024-03-07T03:01:54.829Z,708.00
2024-03-07T03:02:24.834Z,711.00
2024-03-07T03:02:55.093Z,708.00
2024-03-07T03:03:24.932Z,709.00
2024-03-07T03:03:54.951Z,709.00
2024-03-07T03:04:24.967Z,706.00
2024-03-07T03:04:54.984Z,709.00
2024-03-07T03:05:25.047Z,707.00
2024-03-07T03:05:55.165Z,709.00
2024-03-07T03:06:25.134Z,711.00
2024-03-07T03:06:55.124Z,711.00
2024-03-07T03:07:25.127Z,707.00
2024-03-07T03:07:55.554Z,715.00
2024-03-07T03:08:25.213Z,712.00
2024-03-07T03:08:55.281Z,710.00
2024-03-07T03:09:25.284Z,710.00
2024-03-07T03:09:55.292Z,711.00
2024-03-07T03:10:25.318Z,709.00
2024-03-07T03:10:55.355Z,702.00
2024-03-07T03:11:25.440Z,705.00
2024-03-07T03:11:55.404Z,702.00
2024-03-07T03:12:25.401Z,703.00
2024-03-07T03:12:55.395Z,703.00
2024-03-07T03:13:25.417Z,706.00
2024-03-07T03:13:55.414Z,704.00
2024-03-07T03:14:25.457Z,705.00
2024-03-07T03:14:55.492Z,706.00
2024-03-07T03:15:25.505Z,704.00
2024-03-07T03:15:55.489Z,707.00
2024-03-07T03:16:55.576Z,708.00
2024-03-07T03:17:25.701Z,705.00
2024-03-07T03:17:55.747Z,706.00
2024-03-07T03:18:25.839Z,703.00
2024-03-07T03:18:55.769Z,702.00
2024-03-07T03:19:25.751Z,698.00
2024-03-07T03:19:55.769Z,705.00
2024-03-07T03:20:26.276Z,701.00
2024-03-07T03:20:55.953Z,702.00
2024-03-07T03:21:55.885Z,706.00
2024-03-07T03:22:25.893Z,706.00
2024-03-07T03:23:10.552Z,706.00
2024-03-07T03:23:26.080Z,703.00
2024-03-07T03:23:56.158Z,701.00
2024-03-07T03:24:26.193Z,697.00
2024-03-07T03:24:56.200Z,704.00
2024-03-07T03:25:26.197Z,707.00
2024-03-07T03:26:26.336Z,701.00
2024-03-07T03:26:56.340Z,704.00
2024-03-07T03:27:26.337Z,704.00
2024-03-07T03:27:56.457Z,704.00
2024-03-07T03:28:26.477Z,703.00
2024-03-07T03:28:56.474Z,700.00
2024-03-07T03:29:26.503Z,701.00
2024-03-07T03:29:56.515Z,700.00
2024-03-07T03:30:26.507Z,700.00
2024-03-07T03:30:56.497Z,703.00
2024-03-07T03:31:26.523Z,701.00
2024-03-07T03:31:56.544Z,701.00
2024-03-07T03:32:26.605Z,702.00
2024-03-07T03:32:56.882Z,700.00
2024-03-07T03:33:26.782Z,704.00
2024-03-07T03:33:56.836Z,706.00
2024-03-07T03:34:26.814Z,701.00
2024-03-07T03:34:56.929Z,704.00
2024-03-07T03:35:26.953Z,701.00
2024-03-07T03:35:57.173Z,697.00
2024-03-07T03:36:27.048Z,695.00
2024-03-07T03:36:57.035Z,687.00
2024-03-07T03:37:27.069Z,688.00
2024-03-07T03:37:57.045Z,690.00
2024-03-07T03:38:27.150Z,689.00
2024-03-07T03:38:57.308Z,688.00
2024-03-07T03:39:27.312Z,689.00
2024-03-07T03:39:57.368Z,693.00
2024-03-07T03:40:27.460Z,698.00
2024-03-07T03:40:57.550Z,698.00
2024-03-07T03:41:27.642Z,696.00
2024-03-07T03:41:57.677Z,686.00
2024-03-07T03:42:27.693Z,687.00
2024-03-07T03:42:57.773Z,690.00
2024-03-07T03:43:29.660Z,690.00
2024-03-07T03:43:57.931Z,687.00
2024-03-07T03:44:28.059Z,688.00
2024-03-07T03:44:58.141Z,689.00
2024-03-07T03:45:28.231Z,692.00
2024-03-07T03:45:58.295Z,687.00
2024-03-07T03:46:28.401Z,686.00
2024-03-07T03:46:58.488Z,687.00
2024-03-07T03:47:28.633Z,687.00
2024-03-07T03:47:58.741Z,681.00
2024-03-07T03:48:28.660Z,717.00
2024-03-07T03:48:58.654Z,692.00
2024-03-07T03:49:28.662Z,679.00
2024-03-07T03:49:58.669Z,675.00
2024-03-07T03:50:28.846Z,682.00
2024-03-07T03:50:58.911Z,683.00
2024-03-07T03:51:29.019Z,683.00
2024-03-07T03:51:59.008Z,681.00
2024-03-07T03:52:29.005Z,682.00
2024-03-07T03:52:59.007Z,675.00
2024-03-07T03:53:29.071Z,680.00
2024-03-07T03:53:59.149Z,674.00
2024-03-07T03:54:29.155Z,697.00
2024-03-07T03:54:59.159Z,702.00
2024-03-07T03:55:29.170Z,678.00
2024-03-07T03:55:59.188Z,689.00
2024-03-07T03:56:29.208Z,685.00
2024-03-07T03:56:59.338Z,687.00
2024-03-07T03:57:29.240Z,686.00
2024-03-07T03:58:29.331Z,684.00
2024-03-07T03:58:59.332Z,680.00
2024-03-07T03:59:59.425Z,682.00
2024-03-07T04:00:29.514Z,684.00
2024-03-07T04:00:59.562Z,675.00
2024-03-07T04:01:29.589Z,674.00
2024-03-07T04:01:59.656Z,681.00
2024-03-07T04:02:29.687Z,687.00
2024-03-07T04:02:59.723Z,688.00
2024-03-07T04:03:29.750Z,684.00
2024-03-07T04:03:59.863Z,686.00
2024-03-07T04:04:29.872Z,683.00
2024-03-07T04:04:59.878Z,682.00
2024-03-07T04:05:29.921Z,680.00
2024-03-07T04:06:00.058Z,679.00
2024-03-07T04:06:30.000Z,677.00
2024-03-07T04:07:00.046Z,676.00
2024-03-07T04:07:30.014Z,674.00
2024-03-07T04:08:00.144Z,673.00
2024-03-07T04:08:30.166Z,674.00
2024-03-07T04:09:00.228Z,677.00
2024-03-07T04:09:30.219Z,676.00
2024-03-07T04:10:00.222Z,677.00
2024-03-07T04:10:30.236Z,673.00
2024-03-07T04:11:00.244Z,673.00
2024-03-07T04:11:30.284Z,672.00
2024-03-07T04:12:00.404Z,671.00
2024-03-07T04:12:30.363Z,673.00
2024-03-07T04:13:00.362Z,673.00
2024-03-07T04:13:30.367Z,665.00
2024-03-07T04:14:00.367Z,669.00
2024-03-07T04:15:00.541Z,672.00
2024-03-07T04:15:30.554Z,674.00
2024-03-07T04:16:00.585Z,677.00
2024-03-07T04:16:30.569Z,672.00
2024-03-07T04:17:00.697Z,671.00
2024-03-07T04:17:30.732Z,670.00
2024-03-07T04:18:00.835Z,673.00
2024-03-07T04:18:30.895Z,671.00
2024-03-07T04:19:00.917Z,673.00
2024-03-07T04:19:30.923Z,670.00
2024-03-07T04:20:00.927Z,671.00
2024-03-07T04:20:30.982Z,673.00
2024-03-07T04:21:01.274Z,670.00
2024-03-07T04:21:30.971Z,673.00
2024-03-07T04:22:00.988Z,675.00
2024-03-07T04:22:31.048Z,675.00
2024-03-07T04:23:01.052Z,681.00
2024-03-07T04:23:31.095Z,678.00
2024-03-07T04:24:01.259Z,672.00
2024-03-07T04:24:31.152Z,682.00
2024-03-07T04:25:01.161Z,664.00
2024-03-07T04:25:31.162Z,664.00
2024-03-07T04:26:01.167Z,666.00
2024-03-07T04:26:31.228Z,667.00
2024-03-07T04:27:01.235Z,670.00
2024-03-07T04:27:31.214Z,666.00
2024-03-07T04:28:01.218Z,668.00
2024-03-07T04:28:31.232Z,660.00
2024-03-07T04:29:01.250Z,665.00
2024-03-07T04:29:31.287Z,664.00
2024-03-07T04:30:01.288Z,667.00
2024-03-07T04:30:31.289Z,667.00
2024-03-07T04:31:01.283Z,667.00
2024-03-07T04:31:31.289Z,671.00
2024-03-07T04:32:01.306Z,671.00
2024-03-07T04:32:31.438Z,670.00
2024-03-07T04:33:01.566Z,662.00
2024-03-07T04:33:31.460Z,662.00
2024-03-07T04:34:01.411Z,671.00
2024-03-07T04:34:31.422Z,675.00
2024-03-07T04:35:01.448Z,674.00
2024-03-07T04:35:31.470Z,672.00
2024-03-07T04:36:01.624Z,670.00
2024-03-07T04:36:31.548Z,666.00
2024-03-07T04:37:01.555Z,669.00
2024-03-07T04:37:31.652Z,667.00
2024-03-07T04:38:01.801Z,675.00
2024-03-07T04:38:31.819Z,673.00
2024-03-07T04:39:01.852Z,668.00
2024-03-07T04:39:31.884Z,665.00
2024-03-07T04:40:01.974Z,664.00
2024-03-07T04:40:32.061Z,656.00
2024-03-07T04:41:02.149Z,666.00
2024-03-07T04:41:32.266Z,661.00
2024-03-07T04:42:02.256Z,661.00
2024-03-07T04:42:32.227Z,661.00
2024-03-07T04:43:02.336Z,656.00
2024-03-07T04:43:32.414Z,660.00
2024-03-07T04:44:02.518Z,664.00
2024-03-07T04:44:32.620Z,665.00
2024-03-07T04:45:02.631Z,656.00
2024-03-07T04:45:32.698Z,658.00
2024-03-07T04:46:02.795Z,660.00
2024-03-07T04:46:32.871Z,661.00
2024-03-07T04:47:02.944Z,663.00
2024-03-07T04:47:33.171Z,666.00
2024-03-07T04:48:03.299Z,666.00
2024-03-07T04:48:33.291Z,664.00
2024-03-07T04:49:03.130Z,668.00
2024-03-07T04:49:33.160Z,663.00
2024-03-07T04:50:03.244Z,660.00
2024-03-07T04:50:33.352Z,659.00
2024-03-07T04:51:03.658Z,652.00
2024-03-07T04:51:33.396Z,652.00
2024-03-07T04:52:03.422Z,658.00
2024-03-07T04:52:33.411Z,655.00
2024-03-07T04:53:03.443Z,652.00
2024-03-07T04:53:33.495Z,656.00
2024-03-07T04:54:03.496Z,651.00
2024-03-07T04:54:33.538Z,656.00
2024-03-07T04:55:03.528Z,658.00
2024-03-07T04:55:33.638Z,655.00
2024-03-07T04:56:03.752Z,661.00
2024-03-07T04:56:33.796Z,663.00
2024-03-07T04:57:03.797Z,662.00
2024-03-07T04:57:33.797Z,666.00
2024-03-07T04:58:03.911Z,666.00
2024-03-07T04:58:33.905Z,663.00
2024-03-07T04:59:03.921Z,666.00
2024-03-07T04:59:34.068Z,662.00
2024-03-07T05:00:03.957Z,664.00
2024-03-07T05:00:33.985Z,663.00
2024-03-07T05:01:04.060Z,661.00
2024-03-07T05:01:34.080Z,660.00
2024-03-07T05:02:04.077Z,662.00
2024-03-07T05:02:34.211Z,663.00
2024-03-07T05:03:04.287Z,663.00
2024-03-07T05:03:34.274Z,659.00
2024-03-07T05:04:04.273Z,659.00
2024-03-07T05:04:34.317Z,660.00
2024-03-07T05:05:04.317Z,661.00
2024-03-07T05:05:34.407Z,662.00
2024-03-07T05:06:04.385Z,662.00
2024-03-07T05:06:34.378Z,665.00
2024-03-07T05:07:04.390Z,667.00
2024-03-07T05:07:34.380Z,670.00
2024-03-07T05:08:04.380Z,667.00
2024-03-07T05:08:34.489Z,669.00
2024-03-07T05:09:04.529Z,663.00
2024-03-07T05:09:34.527Z,647.00
2024-03-07T05:10:04.553Z,655.00
2024-03-07T05:10:34.547Z,659.00
2024-03-07T05:11:04.608Z,660.00
2024-03-07T05:11:34.700Z,659.00
2024-03-07T05:12:04.757Z,655.00
2024-03-07T05:12:34.816Z,706.00
2024-03-07T05:13:04.822Z,668.00
2024-03-07T05:13:34.824Z,665.00
2024-03-07T05:14:04.933Z,651.00
2024-03-07T05:14:34.987Z,651.00
2024-03-07T05:15:05.071Z,650.00
2024-03-07T05:15:37.183Z,655.00
2024-03-07T05:16:05.143Z,660.00
2024-03-07T05:16:35.158Z,659.00
2024-03-07T05:17:05.174Z,661.00
2024-03-07T05:17:35.243Z,662.00
2024-03-07T05:18:05.340Z,665.00
2024-03-07T05:18:35.336Z,669.00
2024-03-07T05:19:05.347Z,667.00
2024-03-07T05:19:35.354Z,670.00
2024-03-07T05:20:05.371Z,670.00
2024-03-07T05:20:35.388Z,671.00
2024-03-07T05:21:05.444Z,671.00
2024-03-07T05:21:35.480Z,673.00
2024-03-07T05:22:05.486Z,673.00
2024-03-07T05:22:35.478Z,672.00
2024-03-07T05:23:05.595Z,672.00
2024-03-07T05:23:35.634Z,674.00
2024-03-07T05:24:05.714Z,680.00
2024-03-07T05:24:35.777Z,689.00
2024-03-07T05:25:05.764Z,688.00
2024-03-07T05:25:35.767Z,679.00
2024-03-07T05:26:05.776Z,679.00
2024-03-07T05:26:35.800Z,682.00
2024-03-07T05:27:35.857Z,675.00
2024-03-07T05:28:05.874Z,680.00
2024-03-07T05:28:35.943Z,681.00
2024-03-07T05:29:05.938Z,682.00
2024-03-07T05:29:36.004Z,687.00
2024-03-07T05:30:08.273Z,710.00
2024-03-07T05:30:36.086Z,706.00
2024-03-07T05:31:06.097Z,707.00
2024-03-07T05:31:36.100Z,709.00
2024-03-07T05:32:06.106Z,716.00
2024-03-07T05:32:36.195Z,717.00
2024-03-07T05:33:06.186Z,716.00
2024-03-07T05:33:36.268Z,718.00
2024-03-07T05:34:06.275Z,721.00
2024-03-07T05:34:36.282Z,730.00
2024-03-07T05:35:06.313Z,739.00
2024-03-07T05:35:36.348Z,738.00
2024-03-07T05:36:06.379Z,736.00
2024-03-07T05:36:36.372Z,741.00
2024-03-07T05:37:06.388Z,743.00
2024-03-07T05:37:36.485Z,741.00
2024-03-07T05:38:06.570Z,738.00
2024-03-07T05:38:36.686Z,742.00
2024-03-07T05:39:06.723Z,739.00
2024-03-07T05:39:36.712Z,748.00
2024-03-07T05:40:06.786Z,752.00
2024-03-07T05:40:36.863Z,757.00
2024-03-07T05:41:06.929Z,757.00
2024-03-07T05:41:37.057Z,760.00
2024-03-07T05:42:07.155Z,762.00
2024-03-07T05:42:37.128Z,760.00
2024-03-07T05:43:07.228Z,760.00
2024-03-07T05:43:37.319Z,761.00
2024-03-07T05:44:07.412Z,764.00
2024-03-07T05:44:37.543Z,767.00
2024-03-07T05:45:07.553Z,770.00
2024-03-07T05:45:37.656Z,769.00
2024-03-07T05:46:07.745Z,768.00
2024-03-07T05:46:37.813Z,773.00
2024-03-07T05:47:07.891Z,772.00
2024-03-07T05:47:38.046Z,775.00
2024-03-07T05:48:08.087Z,775.00
2024-03-07T05:48:38.081Z,774.00
2024-03-07T05:49:08.103Z,775.00
2024-03-07T05:49:38.100Z,779.00
2024-03-07T05:50:08.117Z,777.00
2024-03-07T05:50:38.162Z,776.00
2024-03-07T05:51:08.195Z,776.00
2024-03-07T05:51:38.263Z,775.00
2024-03-07T05:52:08.287Z,778.00
2024-03-07T05:52:38.330Z,781.00
2024-03-07T05:53:08.348Z,784.00
2024-03-07T05:53:38.397Z,788.00
2024-03-07T05:54:08.405Z,783.00
2024-03-07T05:54:38.429Z,788.00
2024-03-07T05:55:08.476Z,788.00
2024-03-07T05:55:38.452Z,786.00
2024-03-07T05:56:38.566Z,791.00
2024-03-07T05:57:08.560Z,795.00
2024-03-07T05:57:41.439Z,793.00
2024-03-07T05:58:08.634Z,793.00
2024-03-07T05:58:38.638Z,792.00
2024-03-07T05:59:08.640Z,792.00
2024-03-07T05:59:38.683Z,789.00
2024-03-07T06:00:08.663Z,796.00
2024-03-07T06:00:38.732Z,800.00
2024-03-07T06:01:08.801Z,797.00
2024-03-07T06:01:38.810Z,797.00
2024-03-07T06:02:08.849Z,796.00
2024-03-07T06:02:38.859Z,800.00
2024-03-07T06:03:08.863Z,803.00
2024-03-07T06:03:38.898Z,799.00
2024-03-07T06:04:08.887Z,798.00
2024-03-07T06:04:38.900Z,799.00
2024-03-07T06:05:08.904Z,803.00
2024-03-07T06:05:39.020Z,807.00
2024-03-07T06:06:08.904Z,810.00
2024-03-07T06:06:38.943Z,812.00
2024-03-07T06:07:08.949Z,815.00
2024-03-07T06:07:38.955Z,836.00
2024-03-07T06:08:08.966Z,827.00
2024-03-07T06:08:38.991Z,822.00
2024-03-07T06:09:09.261Z,819.00
2024-03-07T06:09:38.997Z,821.00
2024-03-07T06:10:09.004Z,824.00
2024-03-07T06:10:39.154Z,827.00
2024-03-07T06:11:09.153Z,821.00
2024-03-07T06:12:16.241Z,814.00
2024-03-07T06:12:43.769Z,811.00
2024-03-07T06:13:11.087Z,799.00
2024-03-07T06:13:39.426Z,800.00
2024-03-07T06:14:09.435Z,803.00
2024-03-07T06:14:39.470Z,807.00
2024-03-07T06:15:09.532Z,814.00
2024-03-07T06:15:39.538Z,821.00
2024-03-07T06:16:09.529Z,822.00
2024-03-07T06:16:39.833Z,823.00
2024-03-07T06:17:09.635Z,827.00
2024-03-07T06:17:39.720Z,830.00
2024-03-07T06:18:09.777Z,830.00
2024-03-07T06:18:39.737Z,832.00
2024-03-07T06:19:11.327Z,831.00
2024-03-07T06:19:39.770Z,839.00
2024-03-07T06:20:09.765Z,841.00
2024-03-07T06:20:39.857Z,841.00
2024-03-07T06:21:09.875Z,839.00
2024-03-07T06:21:39.881Z,844.00
2024-03-07T06:22:09.982Z,844.00
2024-03-07T06:22:39.888Z,844.00
2024-03-07T06:23:09.889Z,847.00
2024-03-07T06:23:39.928Z,840.00
2024-03-07T06:24:10.039Z,843.00
2024-03-07T06:24:39.930Z,844.00
2024-03-07T06:25:09.948Z,853.00